sensor_id;sensor_type;location;lat;lon;timestamp;temperature;humidity
935;DHT22;454;53.254;10.400;2023-04-25T04:01:17;7.10;99.90
935;DHT22;454;53.254;10.400;2023-04-25T04:03:44;7.10;99.90
935;DHT22;454;53.254;10.400;2023-04-25T04:06:11;7.00;99.90
935;DHT22;454;53.254;10.400;2023-04-25T04:08:38;6.90;99.90
935;DHT22;454;53.254;10.400;2023-04-25T04:11:05;6.90;99.90
935;DHT22;454;53.254;10.400;2023-04-25T04:13:32;6.90;99.90
935;DHT22;454;53.254;10.400;2023-04-25T04:15:59;6.80;99.90
935;DHT22;454;53.254;10.400;2023-04-25T04:18:27;6.80;99.90
935;DHT22;454;53.254;10.400;2023-04-25T04:20:53;6.80;99.90
935;DHT22;454;53.254;10.400;2023-04-25T04:23:20;6.70;99.90
935;DHT22;454;53.254;10.400;2023-04-25T04:25:48;6.70;99.90
935;DHT22;454;53.254;10.400;2023-04-25T04:28:14;6.70;99.90
935;DHT22;454;53.254;10.400;2023-04-25T04:30:42;6.70;99.90
935;DHT22;454;53.254;10.400;2023-04-25T04:33:12;6.70;99.90
935;DHT22;454;53.254;10.400;2023-04-25T04:35:41;6.70;99.90
935;DHT22;454;53.254;10.400;2023-04-25T04:38:09;6.70;99.90
935;DHT22;454;53.254;10.400;2023-04-25T04:40:37;6.70;99.90
935;DHT22;454;53.254;10.400;2023-04-25T04:43:04;6.70;99.90
935;DHT22;454;53.254;10.400;2023-04-25T04:45:31;6.80;99.90
935;DHT22;454;53.254;10.400;2023-04-25T04:47:57;6.80;99.90
935;DHT22;454;53.254;10.400;2023-04-25T04:50:24;6.90;99.90
935;DHT22;454;53.254;10.400;2023-04-25T04:52:53;7.20;99.90
935;DHT22;454;53.254;10.400;2023-04-25T04:55:21;7.40;99.90
935;DHT22;454;53.254;10.400;2023-04-25T04:57:47;7.50;99.90
935;DHT22;454;53.254;10.400;2023-04-25T05:00:15;7.60;99.90
935;DHT22;454;53.254;10.400;2023-04-25T05:02:42;7.50;99.90
935;DHT22;454;53.254;10.400;2023-04-25T05:05:09;7.50;99.90
935;DHT22;454;53.254;10.400;2023-04-25T05:07:35;7.50;99.90
935;DHT22;454;53.254;10.400;2023-04-25T05:10:05;7.50;99.90
935;DHT22;454;53.254;10.400;2023-04-25T05:12:32;7.60;99.90
935;DHT22;454;53.254;10.400;2023-04-25T05:14:58;7.70;99.90
935;DHT22;454;53.254;10.400;2023-04-25T05:17:25;7.80;99.90
935;DHT22;454;53.254;10.400;2023-04-25T05:19:52;7.80;99.90
935;DHT22;454;53.254;10.400;2023-04-25T05:22:19;7.90;99.90
935;DHT22;454;53.254;10.400;2023-04-25T05:24:46;8.00;99.90
935;DHT22;454;53.254;10.400;2023-04-25T05:27:16;8.00;99.90
935;DHT22;454;53.254;10.400;2023-04-25T05:29:43;8.10;99.90
935;DHT22;454;53.254;10.400;2023-04-25T05:32:10;8.10;99.90
935;DHT22;454;53.254;10.400;2023-04-25T05:34:36;8.10;99.90
935;DHT22;454;53.254;10.400;2023-04-25T05:37:03;8.10;99.90
935;DHT22;454;53.254;10.400;2023-04-25T05:39:30;8.10;99.90
935;DHT22;454;53.254;10.400;2023-04-25T05:41:57;8.20;99.90
935;DHT22;454;53.254;10.400;2023-04-25T05:44:25;8.30;99.90
935;DHT22;454;53.254;10.400;2023-04-25T05:46:52;8.40;99.90
935;DHT22;454;53.254;10.400;2023-04-25T05:49:18;8.50;99.90
935;DHT22;454;53.254;10.400;2023-04-25T05:51:45;8.50;99.90
935;DHT22;454;53.254;10.400;2023-04-25T05:54:12;8.50;99.90
935;DHT22;454;53.254;10.400;2023-04-25T05:56:38;8.40;99.90
935;DHT22;454;53.254;10.400;2023-04-25T05:59:05;8.40;99.90
935;DHT22;454;53.254;10.400;2023-04-25T06:01:33;8.30;99.90
935;DHT22;454;53.254;10.400;2023-04-25T06:04:00;8.30;99.90
935;DHT22;454;53.254;10.400;2023-04-25T06:06:27;8.40;99.90
935;DHT22;454;53.254;10.400;2023-04-25T06:08:54;8.40;99.90
935;DHT22;454;53.254;10.400;2023-04-25T06:11:21;8.40;99.90
935;DHT22;454;53.254;10.400;2023-04-25T06:13:47;8.40;99.90
935;DHT22;454;53.254;10.400;2023-04-25T06:16:14;8.30;99.90
935;DHT22;454;53.254;10.400;2023-04-25T06:18:42;8.30;99.90
935;DHT22;454;53.254;10.400;2023-04-25T06:21:09;8.10;99.90
935;DHT22;454;53.254;10.400;2023-04-25T06:23:36;8.10;99.90
935;DHT22;454;53.254;10.400;2023-04-25T06:26:03;8.10;99.90
935;DHT22;454;53.254;10.400;2023-04-25T06:28:30;8.10;99.90
935;DHT22;454;53.254;10.400;2023-04-25T06:30:56;8.10;99.90
935;DHT22;454;53.254;10.400;2023-04-25T06:33:23;8.20;99.90
935;DHT22;454;53.254;10.400;2023-04-25T06:35:52;8.20;99.90
935;DHT22;454;53.254;10.400;2023-04-25T06:38:18;8.20;99.90
935;DHT22;454;53.254;10.400;2023-04-25T06:40:45;8.20;99.90
935;DHT22;454;53.254;10.400;2023-04-25T06:43:12;8.40;99.90
935;DHT22;454;53.254;10.400;2023-04-25T06:45:39;8.40;99.90
935;DHT22;454;53.254;10.400;2023-04-25T06:48:06;8.50;99.90
935;DHT22;454;53.254;10.400;2023-04-25T06:50:33;8.60;99.90
935;DHT22;454;53.254;10.400;2023-04-25T06:53:01;8.70;99.90
935;DHT22;454;53.254;10.400;2023-04-25T06:55:28;8.70;99.90
935;DHT22;454;53.254;10.400;2023-04-25T06:57:55;8.80;99.90
935;DHT22;454;53.254;10.400;2023-04-25T07:00:22;8.90;99.90
935;DHT22;454;53.254;10.400;2023-04-25T07:02:49;8.90;99.90
935;DHT22;454;53.254;10.400;2023-04-25T07:05:16;9.00;99.90
935;DHT22;454;53.254;10.400;2023-04-25T07:07:43;9.10;99.90
935;DHT22;454;53.254;10.400;2023-04-25T07:10:11;9.10;99.90
935;DHT22;454;53.254;10.400;2023-04-25T07:12:38;9.10;99.90
935;DHT22;454;53.254;10.400;2023-04-25T07:15:06;9.00;99.90
935;DHT22;454;53.254;10.400;2023-04-25T07:17:35;9.00;99.90
935;DHT22;454;53.254;10.400;2023-04-25T07:20:02;9.00;99.90
935;DHT22;454;53.254;10.400;2023-04-25T07:22:30;8.90;99.90
935;DHT22;454;53.254;10.400;2023-04-25T07:24:56;8.80;99.90
935;DHT22;454;53.254;10.400;2023-04-25T07:27:24;8.70;99.90
935;DHT22;454;53.254;10.400;2023-04-25T07:29:51;8.70;99.90
935;DHT22;454;53.254;10.400;2023-04-25T07:32:19;8.70;99.90
935;DHT22;454;53.254;10.400;2023-04-25T07:34:45;8.80;99.90
935;DHT22;454;53.254;10.400;2023-04-25T07:37:12;8.80;99.90
935;DHT22;454;53.254;10.400;2023-04-25T07:39:41;8.80;99.90
935;DHT22;454;53.254;10.400;2023-04-25T07:42:08;8.90;99.90
935;DHT22;454;53.254;10.400;2023-04-25T07:44:37;9.00;99.90
935;DHT22;454;53.254;10.400;2023-04-25T07:47:05;9.10;99.90
935;DHT22;454;53.254;10.400;2023-04-25T07:49:33;9.30;99.90
935;DHT22;454;53.254;10.400;2023-04-25T07:52:00;9.50;99.90
935;DHT22;454;53.254;10.400;2023-04-25T07:54:27;9.50;99.90
935;DHT22;454;53.254;10.400;2023-04-25T07:56:55;9.40;99.90
935;DHT22;454;53.254;10.400;2023-04-25T07:59:22;9.40;99.90
935;DHT22;454;53.254;10.400;2023-04-25T08:01:50;9.60;99.90
935;DHT22;454;53.254;10.400;2023-04-25T08:04:17;9.50;99.90
935;DHT22;454;53.254;10.400;2023-04-25T08:06:44;9.50;99.90
935;DHT22;454;53.254;10.400;2023-04-25T08:09:11;9.70;99.90
935;DHT22;454;53.254;10.400;2023-04-25T08:11:38;9.80;99.90
935;DHT22;454;53.254;10.400;2023-04-25T08:14:05;9.70;99.90
935;DHT22;454;53.254;10.400;2023-04-25T08:16:32;9.80;99.90
935;DHT22;454;53.254;10.400;2023-04-25T08:19:00;10.00;99.90
935;DHT22;454;53.254;10.400;2023-04-25T08:21:27;10.20;99.90
935;DHT22;454;53.254;10.400;2023-04-25T08:23:54;10.20;99.90
935;DHT22;454;53.254;10.400;2023-04-25T08:26:21;10.20;99.90
935;DHT22;454;53.254;10.400;2023-04-25T08:28:48;10.20;99.90
935;DHT22;454;53.254;10.400;2023-04-25T08:31:15;10.20;99.90
935;DHT22;454;53.254;10.400;2023-04-25T08:33:42;10.20;99.90
935;DHT22;454;53.254;10.400;2023-04-25T08:36:10;10.20;99.90
935;DHT22;454;53.254;10.400;2023-04-25T08:38:37;10.30;99.90
935;DHT22;454;53.254;10.400;2023-04-25T08:41:05;10.50;99.90
935;DHT22;454;53.254;10.400;2023-04-25T08:43:34;10.60;99.90
935;DHT22;454;53.254;10.400;2023-04-25T08:46:01;10.80;99.90
935;DHT22;454;53.254;10.400;2023-04-25T08:48:32;10.90;99.90
935;DHT22;454;53.254;10.400;2023-04-25T08:51:01;10.90;99.90
935;DHT22;454;53.254;10.400;2023-04-25T08:53:32;11.00;99.90
935;DHT22;454;53.254;10.400;2023-04-25T08:56:01;11.00;99.90
935;DHT22;454;53.254;10.400;2023-04-25T08:58:28;11.00;99.90
935;DHT22;454;53.254;10.400;2023-04-25T09:00:55;11.10;99.90
935;DHT22;454;53.254;10.400;2023-04-25T09:03:21;10.90;99.90
935;DHT22;454;53.254;10.400;2023-04-25T09:05:49;10.70;99.90
935;DHT22;454;53.254;10.400;2023-04-25T09:08:16;10.70;99.90
935;DHT22;454;53.254;10.400;2023-04-25T09:10:44;10.70;99.90
935;DHT22;454;53.254;10.400;2023-04-25T09:13:13;10.80;99.90
935;DHT22;454;53.254;10.400;2023-04-25T09:15:48;10.80;99.90
935;DHT22;454;53.254;10.400;2023-04-25T09:18:22;10.80;99.90
935;DHT22;454;53.254;10.400;2023-04-25T09:20:51;10.80;99.90
935;DHT22;454;53.254;10.400;2023-04-25T09:23:20;10.90;99.90
935;DHT22;454;53.254;10.400;2023-04-25T09:25:50;10.80;99.90
935;DHT22;454;53.254;10.400;2023-04-25T09:28:23;10.70;99.90
935;DHT22;454;53.254;10.400;2023-04-25T09:30:54;10.70;99.90
935;DHT22;454;53.254;10.400;2023-04-25T09:33:27;10.70;99.90
935;DHT22;454;53.254;10.400;2023-04-25T09:36:02;10.70;99.90
935;DHT22;454;53.254;10.400;2023-04-25T09:38:30;10.70;99.90
935;DHT22;454;53.254;10.400;2023-04-25T09:40:58;10.50;99.90
935;DHT22;454;53.254;10.400;2023-04-25T09:43:26;10.40;99.90
935;DHT22;454;53.254;10.400;2023-04-25T09:45:54;10.50;99.90
935;DHT22;454;53.254;10.400;2023-04-25T09:48:24;10.70;99.90
935;DHT22;454;53.254;10.400;2023-04-25T09:51:04;10.80;99.90
935;DHT22;454;53.254;10.400;2023-04-25T09:53:32;10.80;99.90
935;DHT22;454;53.254;10.400;2023-04-25T09:56:00;10.70;99.90
935;DHT22;454;53.254;10.400;2023-04-25T09:58:29;10.40;99.90
935;DHT22;454;53.254;10.400;2023-04-25T10:00:59;10.20;99.90
935;DHT22;454;53.254;10.400;2023-04-25T10:03:30;9.90;99.90
935;DHT22;454;53.254;10.400;2023-04-25T10:05:59;9.60;99.90
935;DHT22;454;53.254;10.400;2023-04-25T10:08:30;9.40;99.90
935;DHT22;454;53.254;10.400;2023-04-25T10:11:00;9.10;99.90
935;DHT22;454;53.254;10.400;2023-04-25T10:13:28;9.00;99.90
935;DHT22;454;53.254;10.400;2023-04-25T10:15:57;9.00;99.90
935;DHT22;454;53.254;10.400;2023-04-25T10:18:24;9.10;99.90
935;DHT22;454;53.254;10.400;2023-04-25T10:20:52;9.10;99.90
935;DHT22;454;53.254;10.400;2023-04-25T10:23:20;9.20;99.90
935;DHT22;454;53.254;10.400;2023-04-25T10:25:47;9.30;99.90
935;DHT22;454;53.254;10.400;2023-04-25T10:28:15;9.40;99.90
935;DHT22;454;53.254;10.400;2023-04-25T10:30:57;9.60;99.90
935;DHT22;454;53.254;10.400;2023-04-25T10:33:30;9.90;99.90
935;DHT22;454;53.254;10.400;2023-04-25T10:35:58;10.00;99.90
935;DHT22;454;53.254;10.400;2023-04-25T10:38:34;9.90;99.90
935;DHT22;454;53.254;10.400;2023-04-25T10:41:06;9.90;99.90
935;DHT22;454;53.254;10.400;2023-04-25T10:43:37;10.00;99.90
935;DHT22;454;53.254;10.400;2023-04-25T10:46:18;10.00;99.90
935;DHT22;454;53.254;10.400;2023-04-25T10:48:47;10.10;99.90
935;DHT22;454;53.254;10.400;2023-04-25T10:51:20;10.20;99.90
935;DHT22;454;53.254;10.400;2023-04-25T10:53:56;10.20;99.90
935;DHT22;454;53.254;10.400;2023-04-25T10:56:26;10.20;99.90
935;DHT22;454;53.254;10.400;2023-04-25T10:59:04;10.10;99.90
935;DHT22;454;53.254;10.400;2023-04-25T11:01:36;10.20;99.90
935;DHT22;454;53.254;10.400;2023-04-25T11:04:03;10.20;99.90
935;DHT22;454;53.254;10.400;2023-04-25T11:06:37;10.20;99.90
935;DHT22;454;53.254;10.400;2023-04-25T11:09:10;10.20;99.90
935;DHT22;454;53.254;10.400;2023-04-25T11:11:38;10.20;99.90
935;DHT22;454;53.254;10.400;2023-04-25T11:14:06;10.30;99.90
935;DHT22;454;53.254;10.400;2023-04-25T11:16:33;10.40;99.90
935;DHT22;454;53.254;10.400;2023-04-25T11:19:01;10.70;99.90
935;DHT22;454;53.254;10.400;2023-04-25T11:21:29;10.80;99.90
935;DHT22;454;53.254;10.400;2023-04-25T11:23:57;11.10;99.90
935;DHT22;454;53.254;10.400;2023-04-25T11:26:24;11.20;99.90
935;DHT22;454;53.254;10.400;2023-04-25T11:28:51;11.20;99.90
935;DHT22;454;53.254;10.400;2023-04-25T11:31:21;11.20;99.90
935;DHT22;454;53.254;10.400;2023-04-25T11:33:48;11.20;99.90
935;DHT22;454;53.254;10.400;2023-04-25T11:36:15;11.10;99.90
935;DHT22;454;53.254;10.400;2023-04-25T11:38:42;11.00;99.90
935;DHT22;454;53.254;10.400;2023-04-25T11:41:08;10.60;99.90
935;DHT22;454;53.254;10.400;2023-04-25T11:43:35;10.10;99.90
935;DHT22;454;53.254;10.400;2023-04-25T11:46:06;9.80;99.90
935;DHT22;454;53.254;10.400;2023-04-25T11:48:38;9.60;99.90
935;DHT22;454;53.254;10.400;2023-04-25T11:51:05;9.60;99.90
935;DHT22;454;53.254;10.400;2023-04-25T11:53:32;9.70;99.90
935;DHT22;454;53.254;10.400;2023-04-25T11:55:59;9.80;99.90
935;DHT22;454;53.254;10.400;2023-04-25T11:58:26;10.00;99.90
935;DHT22;454;53.254;10.400;2023-04-25T12:00:53;10.10;99.90
935;DHT22;454;53.254;10.400;2023-04-25T12:03:20;10.10;99.90
935;DHT22;454;53.254;10.400;2023-04-25T12:05:52;10.10;99.90
935;DHT22;454;53.254;10.400;2023-04-25T12:08:19;10.20;99.90
935;DHT22;454;53.254;10.400;2023-04-25T12:10:46;10.30;99.90
935;DHT22;454;53.254;10.400;2023-04-25T12:13:21;10.40;99.90
935;DHT22;454;53.254;10.400;2023-04-25T12:15:48;10.40;99.90
935;DHT22;454;53.254;10.400;2023-04-25T12:18:18;10.40;99.90
935;DHT22;454;53.254;10.400;2023-04-25T12:20:45;10.40;99.90
935;DHT22;454;53.254;10.400;2023-04-25T12:23:13;10.40;99.90
935;DHT22;454;53.254;10.400;2023-04-25T12:25:42;10.30;99.90
935;DHT22;454;53.254;10.400;2023-04-25T12:28:14;10.30;99.90
935;DHT22;454;53.254;10.400;2023-04-25T12:30:55;10.40;99.90
935;DHT22;454;53.254;10.400;2023-04-25T12:33:23;10.70;99.90
935;DHT22;454;53.254;10.400;2023-04-25T12:35:49;10.80;99.90
935;DHT22;454;53.254;10.400;2023-04-25T12:38:26;10.90;99.90
935;DHT22;454;53.254;10.400;2023-04-25T12:40:53;11.00;99.90
935;DHT22;454;53.254;10.400;2023-04-25T12:43:20;11.20;99.90
935;DHT22;454;53.254;10.400;2023-04-25T12:45:48;11.20;99.90
935;DHT22;454;53.254;10.400;2023-04-25T12:48:15;11.10;99.90
935;DHT22;454;53.254;10.400;2023-04-25T12:50:42;11.10;99.90
935;DHT22;454;53.254;10.400;2023-04-25T12:53:09;11.00;99.90
935;DHT22;454;53.254;10.400;2023-04-25T12:55:38;10.90;99.90
935;DHT22;454;53.254;10.400;2023-04-25T12:58:05;10.70;99.90
935;DHT22;454;53.254;10.400;2023-04-25T13:00:33;10.50;99.90
935;DHT22;454;53.254;10.400;2023-04-25T13:03:00;10.40;99.90
935;DHT22;454;53.254;10.400;2023-04-25T13:05:27;10.30;99.90
935;DHT22;454;53.254;10.400;2023-04-25T13:07:55;10.30;99.90
935;DHT22;454;53.254;10.400;2023-04-25T13:10:22;10.50;99.90
935;DHT22;454;53.254;10.400;2023-04-25T13:12:50;10.60;99.90
935;DHT22;454;53.254;10.400;2023-04-25T13:15:17;10.70;99.90
935;DHT22;454;53.254;10.400;2023-04-25T13:17:44;10.70;99.90
935;DHT22;454;53.254;10.400;2023-04-25T13:20:11;10.80;99.90
935;DHT22;454;53.254;10.400;2023-04-25T13:22:39;10.80;99.90
935;DHT22;454;53.254;10.400;2023-04-25T13:25:07;10.70;99.90
935;DHT22;454;53.254;10.400;2023-04-25T13:27:34;10.50;99.90
935;DHT22;454;53.254;10.400;2023-04-25T13:30:04;10.50;99.90
935;DHT22;454;53.254;10.400;2023-04-25T13:32:33;10.50;99.90
935;DHT22;454;53.254;10.400;2023-04-25T13:35:02;10.50;99.90
935;DHT22;454;53.254;10.400;2023-04-25T13:37:30;10.70;99.90
935;DHT22;454;53.254;10.400;2023-04-25T13:39:58;10.70;99.90
935;DHT22;454;53.254;10.400;2023-04-25T13:42:25;10.80;99.90
935;DHT22;454;53.254;10.400;2023-04-25T13:44:52;10.90;99.90
935;DHT22;454;53.254;10.400;2023-04-25T13:47:20;11.00;99.90
935;DHT22;454;53.254;10.400;2023-04-25T13:49:47;11.00;99.90
935;DHT22;454;53.254;10.400;2023-04-25T13:52:13;11.00;99.90
935;DHT22;454;53.254;10.400;2023-04-25T13:54:40;10.90;99.90
935;DHT22;454;53.254;10.400;2023-04-25T13:57:07;10.80;99.90
935;DHT22;454;53.254;10.400;2023-04-25T13:59:34;10.80;99.90
935;DHT22;454;53.254;10.400;2023-04-25T14:02:00;10.80;99.90
935;DHT22;454;53.254;10.400;2023-04-25T14:04:29;10.70;99.90
935;DHT22;454;53.254;10.400;2023-04-25T14:06:56;10.70;99.90
935;DHT22;454;53.254;10.400;2023-04-25T14:09:23;10.60;99.90
935;DHT22;454;53.254;10.400;2023-04-25T14:11:51;10.60;99.90
935;DHT22;454;53.254;10.400;2023-04-25T14:14:18;10.70;99.90
935;DHT22;454;53.254;10.400;2023-04-25T14:16:44;10.80;99.90
935;DHT22;454;53.254;10.400;2023-04-25T14:19:13;10.90;99.90
935;DHT22;454;53.254;10.400;2023-04-25T14:21:41;11.00;99.90
935;DHT22;454;53.254;10.400;2023-04-25T14:24:08;11.00;99.90
935;DHT22;454;53.254;10.400;2023-04-25T14:26:36;10.90;99.90
935;DHT22;454;53.254;10.400;2023-04-25T14:29:03;10.60;99.90
935;DHT22;454;53.254;10.400;2023-04-25T14:31:30;10.50;99.90
935;DHT22;454;53.254;10.400;2023-04-25T14:33:57;10.20;99.90
935;DHT22;454;53.254;10.400;2023-04-25T14:36:24;10.00;99.90
935;DHT22;454;53.254;10.400;2023-04-25T14:38:53;9.80;99.90
935;DHT22;454;53.254;10.400;2023-04-25T14:41:19;9.70;99.90
935;DHT22;454;53.254;10.400;2023-04-25T14:43:46;9.70;99.90
935;DHT22;454;53.254;10.400;2023-04-25T14:46:13;9.60;99.90
935;DHT22;454;53.254;10.400;2023-04-25T14:48:40;9.70;99.90
935;DHT22;454;53.254;10.400;2023-04-25T14:51:06;9.70;99.90
935;DHT22;454;53.254;10.400;2023-04-25T14:53:33;9.70;99.90
935;DHT22;454;53.254;10.400;2023-04-25T14:56:02;9.80;99.90
935;DHT22;454;53.254;10.400;2023-04-25T14:58:29;9.80;99.90
935;DHT22;454;53.254;10.400;2023-04-25T15:00:56;9.90;99.90
935;DHT22;454;53.254;10.400;2023-04-25T15:03:22;9.90;99.90
935;DHT22;454;53.254;10.400;2023-04-25T15:05:49;9.90;99.90
935;DHT22;454;53.254;10.400;2023-04-25T15:08:16;10.00;99.90
935;DHT22;454;53.254;10.400;2023-04-25T15:10:44;9.90;99.90
935;DHT22;454;53.254;10.400;2023-04-25T15:13:12;9.90;99.90
935;DHT22;454;53.254;10.400;2023-04-25T15:15:38;9.90;99.90
935;DHT22;454;53.254;10.400;2023-04-25T15:18:05;9.90;99.90
935;DHT22;454;53.254;10.400;2023-04-25T15:20:32;9.90;99.90
935;DHT22;454;53.254;10.400;2023-04-25T15:22:59;9.90;99.90
935;DHT22;454;53.254;10.400;2023-04-25T15:25:28;10.00;99.90
935;DHT22;454;53.254;10.400;2023-04-25T15:27:55;10.00;99.90
935;DHT22;454;53.254;10.400;2023-04-25T15:30:23;10.00;99.90
935;DHT22;454;53.254;10.400;2023-04-25T15:32:50;10.00;99.90
935;DHT22;454;53.254;10.400;2023-04-25T15:35:17;10.10;99.90
935;DHT22;454;53.254;10.400;2023-04-25T15:37:43;10.00;99.90
935;DHT22;454;53.254;10.400;2023-04-25T15:40:13;10.00;99.90
935;DHT22;454;53.254;10.400;2023-04-25T15:42:42;9.90;99.90
935;DHT22;454;53.254;10.400;2023-04-25T15:45:10;9.70;99.90
935;DHT22;454;53.254;10.400;2023-04-25T15:47:38;9.70;99.90
935;DHT22;454;53.254;10.400;2023-04-25T15:50:07;9.80;99.90
935;DHT22;454;53.254;10.400;2023-04-25T15:52:35;9.80;99.90
935;DHT22;454;53.254;10.400;2023-04-25T15:55:02;9.80;99.90
935;DHT22;454;53.254;10.400;2023-04-25T15:57:31;9.70;99.90
935;DHT22;454;53.254;10.400;2023-04-25T15:59:58;9.80;99.90
935;DHT22;454;53.254;10.400;2023-04-25T16:02:25;9.90;99.90
935;DHT22;454;53.254;10.400;2023-04-25T16:04:53;9.90;99.90
935;DHT22;454;53.254;10.400;2023-04-25T16:07:20;9.90;99.90
935;DHT22;454;53.254;10.400;2023-04-25T16:09:47;10.00;99.90
935;DHT22;454;53.254;10.400;2023-04-25T16:12:14;10.10;99.90
935;DHT22;454;53.254;10.400;2023-04-25T16:14:41;10.10;99.90
935;DHT22;454;53.254;10.400;2023-04-25T16:17:08;10.20;99.90
935;DHT22;454;53.254;10.400;2023-04-25T16:19:34;10.20;99.90
935;DHT22;454;53.254;10.400;2023-04-25T16:22:03;10.30;99.90
935;DHT22;454;53.254;10.400;2023-04-25T16:24:30;10.20;99.90
935;DHT22;454;53.254;10.400;2023-04-25T16:26:56;10.20;99.90
935;DHT22;454;53.254;10.400;2023-04-25T16:29:23;10.10;99.90
935;DHT22;454;53.254;10.400;2023-04-25T16:31:50;10.00;99.90
935;DHT22;454;53.254;10.400;2023-04-25T16:34:17;10.00;99.90
935;DHT22;454;53.254;10.400;2023-04-25T16:36:43;9.80;99.90
935;DHT22;454;53.254;10.400;2023-04-25T16:39:11;9.70;99.90
935;DHT22;454;53.254;10.400;2023-04-25T16:41:38;9.60;99.90
935;DHT22;454;53.254;10.400;2023-04-25T16:44:06;9.50;99.90
935;DHT22;454;53.254;10.400;2023-04-25T16:46:33;9.40;99.90
935;DHT22;454;53.254;10.400;2023-04-25T16:49:00;9.20;99.90
935;DHT22;454;53.254;10.400;2023-04-25T16:51:27;9.00;99.90
935;DHT22;454;53.254;10.400;2023-04-25T16:53:53;8.80;99.90
935;DHT22;454;53.254;10.400;2023-04-25T16:56:22;8.80;99.90
935;DHT22;454;53.254;10.400;2023-04-25T16:58:49;8.80;99.90
935;DHT22;454;53.254;10.400;2023-04-25T17:01:16;8.80;99.90
935;DHT22;454;53.254;10.400;2023-04-25T17:03:45;8.80;99.90
935;DHT22;454;53.254;10.400;2023-04-25T17:06:12;8.80;99.90
935;DHT22;454;53.254;10.400;2023-04-25T17:08:39;8.90;99.90
935;DHT22;454;53.254;10.400;2023-04-25T17:11:06;8.90;99.90
935;DHT22;454;53.254;10.400;2023-04-25T17:13:35;8.90;99.90
935;DHT22;454;53.254;10.400;2023-04-25T17:16:03;8.90;99.90
935;DHT22;454;53.254;10.400;2023-04-25T17:18:31;8.80;99.90
935;DHT22;454;53.254;10.400;2023-04-25T17:20:57;8.60;99.90
935;DHT22;454;53.254;10.400;2023-04-25T17:23:26;8.60;99.90
935;DHT22;454;53.254;10.400;2023-04-25T17:25:53;8.50;99.90
935;DHT22;454;53.254;10.400;2023-04-25T17:28:19;8.40;99.90
935;DHT22;454;53.254;10.400;2023-04-25T17:30:47;8.40;99.90
935;DHT22;454;53.254;10.400;2023-04-25T17:33:14;8.40;99.90
935;DHT22;454;53.254;10.400;2023-04-25T17:35:41;8.30;99.90
935;DHT22;454;53.254;10.400;2023-04-25T17:38:08;8.30;99.90
935;DHT22;454;53.254;10.400;2023-04-25T17:40:35;8.20;99.90
935;DHT22;454;53.254;10.400;2023-04-25T17:43:01;8.10;99.90
935;DHT22;454;53.254;10.400;2023-04-25T17:45:28;8.00;99.90
935;DHT22;454;53.254;10.400;2023-04-25T17:48:00;8.00;99.90
935;DHT22;454;53.254;10.400;2023-04-25T17:50:28;8.00;99.90
935;DHT22;454;53.254;10.400;2023-04-25T17:52:54;8.00;99.90
935;DHT22;454;53.254;10.400;2023-04-25T17:55:21;8.00;99.90
935;DHT22;454;53.254;10.400;2023-04-25T17:57:49;8.00;99.90
935;DHT22;454;53.254;10.400;2023-04-25T18:00:16;8.00;99.90
935;DHT22;454;53.254;10.400;2023-04-25T18:02:44;8.00;99.90
935;DHT22;454;53.254;10.400;2023-04-25T18:05:13;7.90;99.90
935;DHT22;454;53.254;10.400;2023-04-25T18:07:40;7.90;99.90
935;DHT22;454;53.254;10.400;2023-04-25T18:10:07;7.80;99.90
935;DHT22;454;53.254;10.400;2023-04-25T18:12:36;7.80;99.90
935;DHT22;454;53.254;10.400;2023-04-25T18:15:04;7.70;99.90
935;DHT22;454;53.254;10.400;2023-04-25T18:17:31;7.70;99.90
935;DHT22;454;53.254;10.400;2023-04-25T18:19:59;7.60;99.90
935;DHT22;454;53.254;10.400;2023-04-25T18:22:27;7.60;99.90
935;DHT22;454;53.254;10.400;2023-04-25T18:24:54;7.60;99.90
935;DHT22;454;53.254;10.400;2023-04-25T18:27:21;7.60;99.90
935;DHT22;454;53.254;10.400;2023-04-25T18:29:47;7.60;99.90
935;DHT22;454;53.254;10.400;2023-04-25T18:32:14;7.60;99.90
935;DHT22;454;53.254;10.400;2023-04-25T18:34:41;7.50;99.90
935;DHT22;454;53.254;10.400;2023-04-25T18:37:10;7.50;99.90
935;DHT22;454;53.254;10.400;2023-04-25T18:39:39;7.40;99.90
935;DHT22;454;53.254;10.400;2023-04-25T18:42:06;7.40;99.90
935;DHT22;454;53.254;10.400;2023-04-25T18:44:33;7.40;99.90
935;DHT22;454;53.254;10.400;2023-04-25T18:47:04;7.40;99.90
935;DHT22;454;53.254;10.400;2023-04-25T18:49:32;7.40;99.90
935;DHT22;454;53.254;10.400;2023-04-25T18:51:59;7.40;99.90
935;DHT22;454;53.254;10.400;2023-04-25T18:54:27;7.30;99.90
935;DHT22;454;53.254;10.400;2023-04-25T18:56:55;7.20;99.90
935;DHT22;454;53.254;10.400;2023-04-25T18:59:22;7.20;99.90
935;DHT22;454;53.254;10.400;2023-04-25T19:01:49;7.10;99.90
935;DHT22;454;53.254;10.400;2023-04-25T19:04:17;7.00;99.90
935;DHT22;454;53.254;10.400;2023-04-25T19:06:44;7.00;99.90
935;DHT22;454;53.254;10.400;2023-04-25T19:09:13;6.90;99.90
935;DHT22;454;53.254;10.400;2023-04-25T19:11:40;6.80;99.90
935;DHT22;454;53.254;10.400;2023-04-25T19:14:08;6.80;99.90
935;DHT22;454;53.254;10.400;2023-04-25T19:16:35;6.70;99.90
935;DHT22;454;53.254;10.400;2023-04-25T19:19:03;6.70;99.90
935;DHT22;454;53.254;10.400;2023-04-25T19:21:31;6.60;99.90
935;DHT22;454;53.254;10.400;2023-04-25T19:23:58;6.60;99.90
935;DHT22;454;53.254;10.400;2023-04-25T19:26:26;6.60;99.90
935;DHT22;454;53.254;10.400;2023-04-25T19:29:02;6.50;99.90
935;DHT22;454;53.254;10.400;2023-04-25T19:31:31;6.50;99.90
935;DHT22;454;53.254;10.400;2023-04-25T19:33:58;6.50;99.90
935;DHT22;454;53.254;10.400;2023-04-25T19:36:25;6.40;99.90
935;DHT22;454;53.254;10.400;2023-04-25T19:38:53;6.40;99.90
935;DHT22;454;53.254;10.400;2023-04-25T19:41:26;6.40;99.90
935;DHT22;454;53.254;10.400;2023-04-25T19:43:53;6.40;99.90
935;DHT22;454;53.254;10.400;2023-04-25T19:46:20;6.40;99.90
935;DHT22;454;53.254;10.400;2023-04-25T19:48:48;6.30;99.90
935;DHT22;454;53.254;10.400;2023-04-25T19:51:14;6.40;99.90
935;DHT22;454;53.254;10.400;2023-04-25T19:53:41;6.40;99.90
935;DHT22;454;53.254;10.400;2023-04-25T19:56:08;6.40;99.90
935;DHT22;454;53.254;10.400;2023-04-25T19:58:35;6.40;99.90
935;DHT22;454;53.254;10.400;2023-04-25T20:01:02;6.40;99.90
935;DHT22;454;53.254;10.400;2023-04-25T20:03:29;6.40;99.90
935;DHT22;454;53.254;10.400;2023-04-25T20:05:57;6.40;99.90
935;DHT22;454;53.254;10.400;2023-04-25T20:08:24;6.30;99.90
935;DHT22;454;53.254;10.400;2023-04-25T20:10:51;6.30;99.90
935;DHT22;454;53.254;10.400;2023-04-25T20:13:18;6.30;99.90
935;DHT22;454;53.254;10.400;2023-04-25T20:15:44;6.30;99.90
935;DHT22;454;53.254;10.400;2023-04-25T20:18:11;6.20;99.90
935;DHT22;454;53.254;10.400;2023-04-25T20:20:38;6.20;99.90
935;DHT22;454;53.254;10.400;2023-04-25T20:23:06;6.20;99.90
935;DHT22;454;53.254;10.400;2023-04-25T20:25:33;6.20;99.90
935;DHT22;454;53.254;10.400;2023-04-25T20:28:00;6.10;99.90
935;DHT22;454;53.254;10.400;2023-04-25T20:30:26;6.10;99.90
935;DHT22;454;53.254;10.400;2023-04-25T20:32:53;6.10;99.90